createdAt,value
2018-12-18T00:01:41.382Z,5.90
2018-12-18T00:04:09.593Z,6.00
2018-12-18T00:06:37.720Z,6.00
2018-12-18T00:09:07.124Z,6.00
2018-12-18T00:11:35.376Z,6.00
2018-12-18T00:14:03.536Z,6.00
2018-12-18T00:16:31.600Z,6.00
2018-12-18T00:18:59.749Z,6.00
2018-12-18T00:21:27.830Z,6.00
2018-12-18T00:23:56.001Z,6.00
2018-12-18T00:26:24.400Z,6.00
2018-12-18T00:28:52.452Z,6.00
2018-12-18T00:31:20.602Z,6.10
2018-12-18T00:33:48.825Z,6.10
2018-12-18T00:36:16.947Z,6.10
2018-12-18T00:38:45.103Z,6.10
2018-12-18T00:41:13.343Z,6.10
2018-12-18T00:43:41.420Z,6.10
2018-12-18T00:46:09.572Z,6.00
2018-12-18T00:48:37.729Z,6.10
2018-12-18T00:51:05.947Z,6.10
2018-12-18T00:53:34.083Z,6.10
2018-12-18T00:56:02.289Z,6.10
2018-12-18T00:58:30.343Z,6.10
2018-12-18T01:00:58.509Z,6.10
2018-12-18T01:03:26.650Z,6.00
2018-12-18T01:05:54.845Z,6.00
2018-12-18T01:08:23.024Z,6.00
2018-12-18T01:10:51.135Z,6.00
2018-12-18T01:13:19.303Z,6.00
2018-12-18T01:15:47.555Z,6.00
2018-12-18T01:18:15.796Z,6.00
2018-12-18T01:20:43.931Z,5.90
2018-12-18T01:23:12.088Z,5.90
2018-12-18T01:25:40.147Z,5.90
2018-12-18T01:28:08.272Z,5.90
2018-12-18T01:30:36.464Z,5.90
2018-12-18T01:33:04.629Z,5.90
2018-12-18T01:35:32.704Z,5.90
2018-12-18T01:38:00.804Z,5.90
2018-12-18T01:40:29.120Z,5.90
2018-12-18T01:42:57.512Z,5.90
2018-12-18T01:45:25.657Z,5.90
2018-12-18T01:47:53.725Z,6.00
2018-12-18T01:50:21.861Z,5.90
2018-12-18T01:52:49.959Z,5.90
2018-12-18T01:55:18.105Z,5.90
2018-12-18T01:57:46.180Z,6.00
2018-12-18T02:00:14.753Z,5.90
2018-12-18T02:02:42.855Z,5.80
2018-12-18T02:05:10.975Z,5.80
2018-12-18T02:07:39.132Z,5.80
2018-12-18T02:10:07.309Z,5.80
2018-12-18T02:12:35.497Z,5.80
2018-12-18T02:15:04.003Z,5.80
2018-12-18T02:17:32.163Z,5.80
2018-12-18T02:20:00.388Z,5.80
2018-12-18T02:22:28.500Z,5.80
2018-12-18T02:24:56.699Z,5.80
2018-12-18T02:27:24.787Z,5.80
2018-12-18T02:29:52.861Z,5.80
2018-12-18T02:32:20.961Z,5.80
2018-12-18T02:34:49.097Z,5.80
2018-12-18T02:37:17.241Z,5.80
2018-12-18T02:39:45.302Z,5.80
2018-12-18T02:42:13.454Z,5.80
2018-12-18T02:44:41.613Z,5.80
2018-12-18T02:47:09.823Z,5.90
2018-12-18T02:49:37.941Z,5.80
2018-12-18T02:52:06.858Z,5.90
2018-12-18T02:54:35.128Z,5.90
2018-12-18T02:57:03.236Z,5.90
2018-12-18T02:59:31.332Z,5.90
2018-12-18T03:01:59.400Z,5.90
2018-12-18T03:04:27.523Z,5.90
2018-12-18T03:06:55.726Z,6.00
2018-12-18T03:09:23.915Z,6.00
2018-12-18T03:11:52.204Z,6.00
2018-12-18T03:14:20.357Z,6.00
2018-12-18T03:16:48.591Z,6.00
2018-12-18T03:19:16.751Z,6.00
2018-12-18T03:21:45.009Z,6.00
2018-12-18T03:24:13.271Z,6.00
2018-12-18T03:26:41.472Z,6.00
2018-12-18T03:29:09.896Z,6.00
2018-12-18T03:31:40.174Z,5.90
2018-12-18T03:34:08.288Z,5.90
2018-12-18T03:36:36.516Z,5.90
2018-12-18T03:39:06.784Z,5.90
2018-12-18T03:41:34.897Z,5.80
2018-12-18T03:44:03.075Z,5.80
2018-12-18T03:46:31.397Z,5.80
2018-12-18T03:48:59.555Z,5.80
2018-12-18T03:51:27.694Z,5.80
2018-12-18T03:53:55.884Z,5.80
2018-12-18T03:56:23.973Z,5.70
2018-12-18T03:58:52.287Z,5.70
2018-12-18T04:01:20.524Z,5.70
2018-12-18T04:03:48.674Z,5.60
2018-12-18T04:06:16.980Z,5.60
2018-12-18T04:08:45.215Z,5.60
2018-12-18T04:11:13.362Z,5.60
2018-12-18T04:13:41.601Z,5.60
2018-12-18T04:16:09.823Z,5.60
2018-12-18T04:18:37.983Z,5.60
2018-12-18T04:21:06.135Z,5.60
2018-12-18T04:23:34.229Z,5.60
2018-12-18T04:26:02.438Z,5.60
2018-12-18T04:28:30.630Z,5.70
2018-12-18T04:30:58.823Z,5.60
2018-12-18T04:33:26.944Z,5.60
2018-12-18T04:35:55.146Z,5.60
2018-12-18T04:38:23.259Z,5.70
2018-12-18T04:40:51.463Z,5.60
2018-12-18T04:43:19.553Z,5.70
2018-12-18T04:45:47.904Z,5.60
2018-12-18T04:48:16.148Z,5.60
2018-12-18T04:50:44.364Z,5.60
2018-12-18T04:53:12.559Z,5.60
2018-12-18T04:55:40.721Z,5.60
2018-12-18T04:58:08.890Z,5.70
2018-12-18T05:00:37.073Z,5.60
2018-12-18T05:03:05.390Z,5.70
2018-12-18T05:05:33.552Z,5.70
2018-12-18T05:08:01.618Z,5.70
2018-12-18T05:10:29.852Z,5.70
2018-12-18T05:12:58.039Z,5.70
2018-12-18T05:15:26.221Z,5.70
2018-12-18T05:17:54.307Z,5.70
2018-12-18T05:20:22.477Z,5.70
2018-12-18T05:22:50.562Z,5.70
2018-12-18T05:25:18.643Z,5.70
2018-12-18T05:27:46.730Z,5.70
2018-12-18T05:30:14.844Z,5.70
2018-12-18T05:32:43.027Z,5.70
2018-12-18T05:35:11.260Z,5.70
2018-12-18T05:37:39.311Z,5.70
2018-12-18T05:40:07.522Z,5.70
2018-12-18T05:42:35.727Z,5.70
2018-12-18T05:45:04.094Z,5.70
2018-12-18T05:47:32.154Z,5.70
2018-12-18T05:50:00.325Z,5.70
2018-12-18T05:52:28.453Z,5.70
2018-12-18T05:54:56.501Z,5.70
2018-12-18T05:57:24.596Z,5.70
2018-12-18T05:59:52.775Z,5.70
2018-12-18T06:02:20.915Z,5.70
2018-12-18T06:04:49.086Z,5.80
2018-12-18T06:07:17.352Z,5.80
2018-12-18T06:09:45.520Z,5.70
2018-12-18T06:12:16.633Z,5.70
2018-12-18T06:14:44.860Z,5.70
2018-12-18T06:17:13.004Z,5.70
2018-12-18T06:19:41.092Z,5.70
2018-12-18T06:22:09.252Z,5.60
2018-12-18T06:24:37.441Z,5.70
2018-12-18T06:27:05.600Z,5.60
2018-12-18T06:29:33.726Z,5.60
2018-12-18T06:32:08.435Z,5.60
2018-12-18T06:34:36.635Z,5.60
2018-12-18T06:37:04.876Z,5.60
2018-12-18T06:39:33.052Z,5.60
2018-12-18T06:42:01.111Z,5.70
2018-12-18T06:44:29.427Z,5.70
2018-12-18T06:46:57.705Z,5.80
2018-12-18T06:49:25.923Z,5.80
2018-12-18T06:51:54.038Z,5.80
2018-12-18T06:54:22.118Z,5.80
2018-12-18T06:56:50.257Z,5.90
2018-12-18T06:59:18.380Z,5.80
2018-12-18T07:01:46.481Z,5.90
2018-12-18T07:04:14.629Z,5.80
2018-12-18T07:06:42.799Z,5.80
2018-12-18T07:09:10.977Z,5.70
2018-12-18T07:11:39.188Z,5.70
2018-12-18T07:14:07.408Z,5.60
2018-12-18T07:16:35.587Z,5.60
2018-12-18T07:19:03.787Z,5.60
2018-12-18T07:21:31.975Z,5.50
2018-12-18T07:24:00.071Z,5.50
2018-12-18T07:26:28.296Z,5.50
2018-12-18T07:28:56.439Z,5.50
2018-12-18T07:31:24.651Z,5.50
2018-12-18T07:33:52.804Z,5.50
2018-12-18T07:36:21.688Z,5.50
2018-12-18T07:38:49.823Z,5.50
2018-12-18T07:41:18.025Z,5.50
2018-12-18T07:43:46.668Z,5.50
2018-12-18T07:46:14.860Z,5.50
2018-12-18T07:48:42.984Z,5.50
2018-12-18T07:51:11.140Z,5.50
2018-12-18T07:53:39.273Z,5.50
2018-12-18T07:56:07.460Z,5.40
2018-12-18T07:58:35.574Z,5.40
2018-12-18T08:01:03.752Z,5.40
2018-12-18T08:03:31.825Z,5.50
2018-12-18T08:05:59.956Z,5.50
2018-12-18T08:08:28.110Z,5.50
2018-12-18T08:10:56.289Z,5.50
2018-12-18T08:13:24.424Z,5.50
2018-12-18T08:15:52.557Z,5.50
2018-12-18T08:18:20.613Z,5.60
2018-12-18T08:20:48.762Z,5.60
2018-12-18T08:23:16.976Z,5.60
2018-12-18T08:25:45.043Z,5.70
2018-12-18T08:28:13.112Z,5.70
2018-12-18T08:30:41.269Z,5.70
2018-12-18T08:33:09.343Z,5.80
2018-12-18T08:35:37.502Z,5.80
2018-12-18T08:38:05.811Z,5.80
2018-12-18T08:40:33.935Z,5.80
2018-12-18T08:43:01.999Z,5.90
2018-12-18T08:45:30.216Z,5.90
2018-12-18T08:47:58.321Z,6.00
2018-12-18T08:50:26.526Z,6.00
2018-12-18T08:52:54.637Z,6.10
2018-12-18T08:55:22.857Z,6.10
2018-12-18T08:57:50.987Z,6.10
2018-12-18T09:00:19.180Z,6.10
2018-12-18T09:02:47.364Z,6.10
2018-12-18T09:05:15.589Z,6.10
2018-12-18T09:07:43.636Z,6.10
2018-12-18T09:22:19.047Z,6.00
2018-12-18T09:24:47.253Z,6.10
2018-12-18T09:27:15.489Z,6.10
2018-12-18T09:29:43.535Z,6.20
2018-12-18T09:32:11.638Z,6.20
2018-12-18T09:40:50.454Z,6.60
2018-12-18T09:43:24.156Z,6.70
2018-12-18T09:45:52.297Z,6.80
2018-12-18T09:48:20.464Z,6.90
2018-12-18T09:50:48.711Z,7.00
2018-12-18T09:53:16.852Z,7.10
2018-12-18T09:55:45.028Z,7.20
2018-12-18T09:58:13.744Z,7.40
2018-12-18T10:00:41.844Z,7.50
2018-12-18T10:03:09.999Z,7.50
2018-12-18T10:05:38.133Z,7.60
2018-12-18T10:08:06.289Z,7.60
2018-12-18T10:10:34.437Z,7.70
2018-12-18T10:13:02.616Z,7.70
2018-12-18T10:15:30.812Z,7.70
2018-12-18T10:17:59.575Z,7.80
2018-12-18T10:20:27.732Z,7.80
2018-12-18T10:22:55.855Z,8.00
2018-12-18T10:25:24.066Z,8.10
2018-12-18T10:27:52.167Z,8.10
2018-12-18T10:30:20.267Z,8.10
2018-12-18T10:32:48.348Z,8.00
2018-12-18T10:35:16.528Z,7.90
2018-12-18T10:37:44.675Z,7.80
2018-12-18T10:40:12.835Z,7.80
2018-12-18T10:42:41.016Z,7.80
2018-12-18T10:45:15.737Z,7.90
2018-12-18T10:47:43.861Z,8.00
2018-12-18T10:50:12.020Z,8.10
2018-12-18T10:52:40.213Z,8.10
2018-12-18T10:55:08.420Z,8.30
2018-12-18T10:57:36.520Z,8.30
2018-12-18T11:00:09.626Z,8.40
2018-12-18T11:02:37.907Z,8.40
2018-12-18T11:05:06.127Z,8.30
2018-12-18T11:07:34.197Z,8.30
2018-12-18T11:10:02.374Z,8.20
2018-12-18T11:12:35.908Z,8.20
2018-12-18T11:15:04.081Z,8.10
2018-12-18T11:17:32.127Z,8.20
2018-12-18T11:20:00.237Z,8.20
2018-12-18T11:22:28.355Z,8.20
2018-12-18T11:24:56.520Z,8.20
2018-12-18T11:27:24.793Z,8.20
2018-12-18T11:29:52.907Z,8.10
2018-12-18T11:32:21.068Z,8.10
2018-12-18T11:34:49.164Z,8.00
2018-12-18T11:37:17.289Z,8.00
2018-12-18T11:39:45.384Z,8.10
2018-12-18T11:42:13.509Z,8.20
2018-12-18T11:44:41.617Z,8.50
2018-12-18T11:47:09.681Z,8.70
2018-12-18T11:49:37.805Z,8.90
2018-12-18T11:52:05.964Z,9.20
2018-12-18T11:54:34.036Z,9.20
2018-12-18T11:57:02.155Z,9.20
2018-12-18T11:59:30.432Z,9.20
2018-12-18T12:01:58.656Z,9.40
2018-12-18T12:04:30.119Z,9.40
2018-12-18T12:06:59.127Z,9.60
2018-12-18T12:09:27.475Z,9.90
2018-12-18T12:11:56.129Z,10.00
2018-12-18T12:14:24.220Z,10.10
2018-12-18T12:16:53.904Z,10.10
2018-12-18T12:19:22.015Z,9.90
2018-12-18T12:21:50.192Z,10.00
2018-12-18T12:24:18.780Z,10.10
2018-12-18T12:26:49.004Z,10.20
2018-12-18T12:29:18.905Z,10.30
2018-12-18T12:31:47.016Z,10.20
2018-12-18T12:34:15.816Z,10.20
2018-12-18T12:36:43.865Z,10.30
2018-12-18T12:39:12.281Z,10.10
2018-12-18T12:41:40.421Z,9.90
2018-12-18T12:44:08.601Z,9.80
2018-12-18T12:46:36.709Z,9.60
2018-12-18T12:49:10.996Z,9.40
2018-12-18T12:51:39.783Z,9.20
2018-12-18T12:54:08.655Z,9.00
2018-12-18T12:56:36.712Z,8.80
2018-12-18T12:59:05.124Z,8.50
2018-12-18T13:01:33.310Z,8.30
2018-12-18T13:04:01.417Z,8.00
2018-12-18T13:06:36.236Z,7.80
2018-12-18T13:09:00.648Z,7.50
2018-12-18T13:11:28.935Z,7.20
2018-12-18T13:13:57.068Z,7.10
2018-12-18T13:16:25.204Z,7.00
2018-12-18T13:18:53.526Z,6.80
2018-12-18T13:21:23.217Z,6.70
2018-12-18T13:23:51.360Z,6.50
2018-12-18T13:26:19.432Z,6.50
2018-12-18T13:28:47.509Z,6.40
2018-12-18T13:31:15.849Z,6.30
2018-12-18T13:33:45.849Z,6.20
2018-12-18T13:36:14.684Z,6.20
2018-12-18T13:38:42.817Z,6.20
2018-12-18T13:41:10.979Z,6.10
2018-12-18T13:43:39.735Z,6.00
2018-12-18T13:46:14.788Z,6.00
2018-12-18T13:48:39.119Z,6.00
2018-12-18T13:51:07.240Z,5.80
2018-12-18T13:53:35.420Z,5.80
2018-12-18T13:56:03.689Z,5.70
2018-12-18T13:58:31.764Z,5.70
2018-12-18T14:00:59.932Z,5.60
2018-12-18T14:03:28.124Z,5.60
2018-12-18T14:05:56.225Z,5.50
2018-12-18T14:08:24.357Z,5.50
2018-12-18T14:10:52.513Z,5.50
2018-12-18T14:13:20.708Z,5.50
2018-12-18T14:15:48.854Z,5.40
2018-12-18T14:18:16.925Z,5.40
2018-12-18T14:20:45.068Z,5.40
2018-12-18T14:23:13.184Z,5.40
2018-12-18T14:25:41.251Z,5.40
2018-12-18T14:28:09.303Z,5.40
2018-12-18T14:30:37.382Z,5.30
2018-12-18T14:33:05.527Z,5.30
2018-12-18T14:35:33.715Z,5.20
2018-12-18T14:38:02.086Z,5.20
2018-12-18T14:40:30.212Z,5.20
2018-12-18T14:42:58.288Z,5.20
2018-12-18T14:45:26.423Z,5.10
2018-12-18T14:47:54.560Z,5.10
2018-12-18T14:50:22.857Z,5.10
2018-12-18T14:52:51.052Z,5.00
2018-12-18T14:55:19.172Z,5.00
2018-12-18T14:57:47.263Z,5.00
2018-12-18T15:00:15.461Z,5.00
2018-12-18T15:02:43.639Z,4.90
2018-12-18T15:05:11.773Z,4.90
2018-12-18T15:07:39.853Z,4.90
2018-12-18T15:10:09.212Z,4.80
2018-12-18T15:12:41.613Z,4.80
2018-12-18T15:15:09.719Z,4.80
2018-12-18T15:17:37.850Z,4.80
2018-12-18T15:20:08.269Z,4.80
2018-12-18T15:22:36.584Z,4.70
2018-12-18T15:25:05.123Z,4.70
2018-12-18T15:27:33.276Z,4.70
2018-12-18T15:30:01.436Z,4.70
2018-12-18T15:32:29.653Z,4.70
2018-12-18T15:34:57.808Z,4.70
2018-12-18T15:37:25.891Z,4.70
2018-12-18T15:39:53.963Z,4.70
2018-12-18T15:42:22.145Z,4.70
2018-12-18T15:44:50.228Z,4.60
2018-12-18T15:47:18.281Z,4.60
2018-12-18T15:49:46.428Z,4.60
2018-12-18T15:52:14.577Z,4.60
2018-12-18T15:54:42.653Z,4.70
2018-12-18T15:57:10.720Z,4.70
2018-12-18T15:59:38.779Z,4.70
2018-12-18T16:02:06.892Z,4.70
2018-12-18T16:04:34.963Z,4.70
2018-12-18T16:07:03.216Z,4.70
2018-12-18T16:09:32.148Z,4.70
2018-12-18T16:12:00.332Z,4.70
2018-12-18T16:14:28.528Z,4.70
2018-12-18T16:16:56.654Z,4.70
2018-12-18T16:19:24.791Z,4.70
2018-12-18T16:21:53.348Z,4.70
2018-12-18T16:24:21.708Z,4.70
2018-12-18T16:26:49.799Z,4.70
2018-12-18T16:29:17.920Z,4.70
2018-12-18T16:31:45.999Z,4.70
2018-12-18T16:34:14.148Z,4.70
2018-12-18T16:36:42.291Z,4.70
2018-12-18T16:39:10.504Z,4.70
2018-12-18T16:41:38.580Z,4.70
2018-12-18T16:44:06.701Z,4.70
2018-12-18T16:46:34.847Z,4.70
2018-12-18T16:49:03.228Z,4.70
2018-12-18T16:51:31.445Z,4.70
2018-12-18T16:53:59.595Z,4.70
2018-12-18T16:56:27.696Z,4.70
2018-12-18T16:58:55.750Z,4.60
2018-12-18T17:01:23.892Z,4.70
2018-12-18T17:03:51.983Z,4.70
2018-12-18T17:06:20.217Z,4.60
2018-12-18T17:08:48.437Z,4.60
2018-12-18T17:11:16.617Z,4.60
2018-12-18T17:13:44.780Z,4.60
2018-12-18T17:16:12.915Z,4.60
2018-12-18T17:18:41.035Z,4.60
2018-12-18T17:21:09.273Z,4.60
2018-12-18T17:23:37.458Z,4.60
2018-12-18T17:26:05.638Z,4.50
2018-12-18T17:28:33.712Z,4.50
2018-12-18T17:31:01.831Z,4.50
2018-12-18T17:33:29.920Z,4.50
2018-12-18T17:35:58.303Z,4.50
2018-12-18T17:38:26.410Z,4.50
2018-12-18T17:40:54.593Z,4.50
2018-12-18T17:43:23.045Z,4.40
2018-12-18T17:45:51.159Z,4.40
2018-12-18T17:48:19.248Z,4.40
2018-12-18T17:50:47.380Z,4.40
2018-12-18T17:53:15.486Z,4.40
2018-12-18T17:55:43.556Z,4.40
2018-12-18T17:58:11.734Z,4.40
2018-12-18T18:00:41.064Z,4.40
2018-12-18T18:03:09.295Z,4.40
2018-12-18T18:05:37.531Z,4.30
2018-12-18T18:08:05.660Z,4.30
2018-12-18T18:10:33.736Z,4.30
2018-12-18T18:13:01.865Z,4.30
2018-12-18T18:15:29.993Z,4.30
2018-12-18T18:17:58.106Z,4.30
2018-12-18T18:20:26.272Z,4.30
2018-12-18T18:22:54.418Z,4.30
2018-12-18T18:25:22.635Z,4.40
2018-12-18T18:27:51.343Z,4.40
2018-12-18T18:30:19.719Z,4.40
2018-12-18T18:32:47.835Z,4.40
2018-12-18T18:35:16.000Z,4.40
2018-12-18T18:37:49.596Z,4.30
2018-12-18T18:40:14.336Z,4.40
2018-12-18T18:42:42.421Z,4.40
2018-12-18T18:45:10.616Z,4.40
2018-12-18T18:47:38.849Z,4.30
2018-12-18T18:50:08.559Z,4.30
2018-12-18T18:52:36.808Z,4.30
2018-12-18T18:55:05.000Z,4.30
2018-12-18T18:57:33.190Z,4.30
2018-12-18T19:00:01.441Z,4.30
2018-12-18T19:02:29.588Z,4.30
2018-12-18T19:04:57.655Z,4.30
2018-12-18T19:07:25.729Z,4.30
2018-12-18T19:09:53.828Z,4.30
2018-12-18T19:12:21.935Z,4.30
2018-12-18T19:14:50.132Z,4.20
2018-12-18T19:17:18.337Z,4.20
2018-12-18T19:19:46.433Z,4.20
2018-12-18T19:22:14.545Z,4.20
2018-12-18T19:24:42.684Z,4.20
2018-12-18T19:27:10.741Z,4.20
2018-12-18T19:29:38.936Z,4.20
2018-12-18T19:32:07.124Z,4.10
2018-12-18T19:34:35.257Z,4.10
2018-12-18T19:37:03.457Z,4.10
2018-12-18T19:39:31.768Z,4.10
2018-12-18T19:41:59.955Z,4.10
2018-12-18T19:44:28.104Z,4.10
2018-12-18T19:46:56.171Z,4.10
2018-12-18T19:49:24.974Z,4.10
2018-12-18T19:51:53.112Z,4.00
2018-12-18T19:54:21.264Z,4.00
2018-12-18T19:56:49.437Z,3.90
2018-12-18T19:59:17.552Z,3.90
2018-12-18T20:01:45.718Z,3.90
2018-12-18T20:04:13.896Z,3.90
2018-12-18T20:06:41.951Z,3.90
2018-12-18T20:09:10.528Z,3.90
2018-12-18T20:11:38.626Z,3.90
2018-12-18T20:14:06.901Z,3.80
2018-12-18T20:16:35.072Z,3.80
2018-12-18T20:19:03.259Z,3.80
2018-12-18T20:21:31.372Z,3.80
2018-12-18T20:23:59.798Z,3.80
2018-12-18T20:26:28.009Z,3.80
2018-12-18T20:28:56.252Z,3.80
2018-12-18T20:31:24.521Z,3.80
2018-12-18T20:33:52.715Z,3.80
2018-12-18T20:36:21.040Z,3.80
2018-12-18T20:38:49.127Z,3.80
2018-12-18T20:41:17.324Z,3.90
2018-12-18T20:43:45.433Z,3.90
2018-12-18T20:46:13.700Z,3.90
2018-12-18T20:48:41.857Z,4.00
2018-12-18T20:51:10.022Z,4.00
2018-12-18T20:53:38.224Z,3.90
2018-12-18T20:56:06.499Z,4.00
2018-12-18T20:58:34.692Z,4.00
2018-12-18T21:01:03.040Z,4.00
2018-12-18T21:03:31.183Z,4.00
2018-12-18T21:05:59.392Z,4.00
2018-12-18T21:08:27.677Z,4.10
2018-12-18T21:10:56.001Z,4.10
2018-12-18T21:13:27.644Z,4.10
2018-12-18T21:15:55.995Z,4.10
2018-12-18T21:18:24.244Z,4.10
2018-12-18T21:20:52.657Z,4.10
2018-12-18T21:23:21.036Z,4.10
2018-12-18T21:25:49.262Z,4.00
2018-12-18T21:28:18.404Z,4.00
2018-12-18T21:30:46.662Z,4.00
2018-12-18T21:33:15.432Z,4.00
2018-12-18T21:35:44.284Z,3.90
2018-12-18T21:38:12.533Z,3.90
2018-12-18T21:40:40.918Z,3.80
2018-12-18T21:43:10.046Z,3.80
2018-12-18T21:45:38.300Z,3.70
2018-12-18T21:48:06.984Z,3.70
2018-12-18T21:50:35.188Z,3.70
2018-12-18T21:53:03.606Z,3.70
2018-12-18T21:55:32.435Z,3.70
2018-12-18T21:58:01.823Z,3.60
2018-12-18T22:03:38.600Z,3.60
2018-12-18T22:06:06.802Z,3.60
2018-12-18T22:08:36.973Z,3.60
2018-12-18T22:11:06.399Z,3.60
2018-12-18T22:13:34.639Z,3.60
2018-12-18T22:16:02.849Z,3.50
2018-12-18T22:18:32.131Z,3.50
2018-12-18T22:21:00.470Z,3.50
2018-12-18T22:23:28.694Z,3.50
2018-12-18T22:25:56.889Z,3.50
2018-12-18T22:28:25.014Z,3.50
2018-12-18T22:30:53.197Z,3.50
2018-12-18T22:33:22.004Z,3.40
2018-12-18T22:35:50.148Z,3.50
2018-12-18T22:38:18.219Z,3.50
2018-12-18T22:40:46.337Z,3.50
2018-12-18T22:43:14.482Z,3.50
2018-12-18T22:45:42.531Z,3.50
2018-12-18T22:48:10.680Z,3.50
2018-12-18T22:50:38.876Z,3.50
2018-12-18T22:53:06.991Z,3.40
2018-12-18T22:55:35.170Z,3.40
2018-12-18T22:58:03.353Z,3.40
2018-12-18T23:00:37.316Z,3.40
2018-12-18T23:03:05.371Z,3.40
2018-12-18T23:05:33.488Z,3.40
2018-12-18T23:08:01.945Z,3.40
2018-12-18T23:10:30.080Z,3.30
2018-12-18T23:12:58.176Z,3.30
2018-12-18T23:15:26.232Z,3.30
2018-12-18T23:17:54.276Z,3.40
2018-12-18T23:20:22.361Z,3.30
2018-12-18T23:22:50.447Z,3.30
2018-12-18T23:25:18.593Z,3.30
2018-12-18T23:27:46.693Z,3.30
2018-12-18T23:30:14.873Z,3.40
2018-12-18T23:32:43.001Z,3.30
2018-12-18T23:35:11.116Z,3.30
2018-12-18T23:37:39.165Z,3.30
2018-12-18T23:40:07.311Z,3.30
2018-12-18T23:42:35.366Z,3.30
2018-12-18T23:45:03.643Z,3.30
2018-12-18T23:47:31.719Z,3.30
2018-12-18T23:49:59.804Z,3.40
2018-12-18T23:52:27.980Z,3.40
2018-12-18T23:54:56.084Z,3.40
2018-12-18T23:57:24.277Z,3.40
2018-12-18T23:59:52.458Z,3.40
